Time;durP1;ratioP1;P1;durP2;ratioP2;P2;SDS_P1;SDS_P2;PMS_P1;PMS_P2;Temp;Humidity;BMP_temperature;BMP_pressure;BME280_temperature;BME280_humidity;BME280_pressure;Samples;Min_cycle;Max_cycle;Signal;HPM_P1;HPM_P2
2022/02/16 00:01:46;;;;;;;7.20;2.97;;;9.90;99.90;;;;;;4975441;28;20233;-87
2022/02/16 00:04:12;;;;;;;2.65;2.33;;;9.80;99.90;;;;;;4975396;28;20201;-78
2022/02/16 00:06:40;;;;;;;4.75;2.92;;;9.90;99.90;;;;;;4975185;28;20170;-83
2022/02/16 00:09:06;;;;;;;5.28;2.72;;;10.00;99.90;;;;;;4974871;28;20174;-79
2022/02/16 00:11:32;;;;;;;4.07;2.22;;;10.00;99.90;;;;;;4975119;28;20591;-79
2022/02/16 00:13:57;;;;;;;5.75;2.65;;;9.80;99.90;;;;;;4975082;28;20544;-78
2022/02/16 00:16:23;;;;;;;4.85;2.13;;;9.80;99.90;;;;;;4976438;28;20174;-78
2022/02/16 00:18:49;;;;;;;2.70;2.10;;;9.90;99.90;;;;;;4974751;28;20249;-78
2022/02/16 00:21:15;;;;;;;4.10;2.20;;;10.00;99.90;;;;;;4974249;28;20202;-78
2022/02/16 00:23:41;;;;;;;2.63;2.22;;;10.00;99.90;;;;;;4957782;28;20240;-78
2022/02/16 00:26:07;;;;;;;2.25;1.95;;;10.00;99.90;;;;;;4957803;28;20220;-78
2022/02/16 00:28:32;;;;;;;2.35;2.15;;;9.90;99.90;;;;;;4975368;28;20272;-78
2022/02/16 00:30:58;;;;;;;3.05;1.73;;;9.90;99.90;;;;;;4975444;28;20174;-79
2022/02/16 00:33:24;;;;;;;9.32;2.95;;;10.00;99.90;;;;;;4975043;28;20185;-87
2022/02/16 00:35:49;;;;;;;4.93;1.90;;;10.10;99.90;;;;;;4957661;28;20206;-79
2022/02/16 00:38:15;;;;;;;1.70;1.60;;;10.00;99.90;;;;;;4974787;28;20240;-78
2022/02/16 00:40:41;;;;;;;3.60;2.17;;;9.90;99.90;;;;;;4974662;28;20173;-78
2022/02/16 00:43:07;;;;;;;5.35;1.90;;;9.80;99.90;;;;;;4974444;28;20213;-78
2022/02/16 00:45:33;;;;;;;2.15;2.03;;;9.90;99.90;;;;;;4974087;28;20242;-79
2022/02/16 00:48:03;;;;;;;3.42;2.13;;;9.90;99.90;;;;;;4847851;28;20532;-79
2022/02/16 00:50:29;;;;;;;5.57;2.00;;;9.90;99.90;;;;;;4974675;28;20158;-84
2022/02/16 00:52:55;;;;;;;7.22;2.15;;;10.00;99.90;;;;;;4974490;28;20233;-79
2022/02/16 00:55:21;;;;;;;2.33;2.13;;;9.80;99.90;;;;;;4974648;28;20579;-79
2022/02/16 00:57:46;;;;;;;1.88;1.70;;;9.80;99.90;;;;;;4974654;28;20184;-81
2022/02/16 01:00:13;;;;;;;6.35;1.52;;;9.80;99.90;;;;;;4974648;28;20174;-79
2022/02/16 01:02:39;;;;;;;3.95;2.03;;;9.80;99.90;;;;;;4957710;28;20205;-80
2022/02/16 01:05:05;;;;;;;2.30;1.80;;;9.80;99.90;;;;;;4974846;28;20600;-87
2022/02/16 01:07:31;;;;;;;2.20;1.77;;;9.80;99.90;;;;;;4974315;28;20181;-80
2022/02/16 01:09:57;;;;;;;1.63;1.50;;;9.80;99.90;;;;;;4974203;28;20165;-79
2022/02/16 01:12:23;;;;;;;2.47;1.50;;;9.80;99.90;;;;;;4957171;28;20264;-79
2022/02/16 01:14:48;;;;;;;1.90;1.67;;;9.90;99.90;;;;;;4957781;28;20567;-80
2022/02/16 01:17:14;;;;;;;2.00;1.60;;;9.90;99.90;;;;;;4974670;28;20244;-79
2022/02/16 01:19:40;;;;;;;3.92;1.92;;;9.90;99.90;;;;;;4974613;28;20177;-89
2022/02/16 01:22:06;;;;;;;5.95;2.50;;;9.80;99.90;;;;;;4974466;28;20213;-79
2022/02/16 01:24:31;;;;;;;2.53;1.42;;;9.90;99.90;;;;;;4974306;28;20205;-88
2022/02/16 01:26:57;;;;;;;2.60;1.38;;;9.90;99.90;;;;;;4974625;28;20178;-79
2022/02/16 01:29:23;;;;;;;3.10;1.58;;;9.80;99.90;;;;;;4974232;28;20205;-79
2022/02/16 01:31:50;;;;;;;4.45;1.30;;;9.90;99.90;;;;;;4980962;28;20193;-83
2022/02/16 01:34:16;;;;;;;1.80;1.20;;;9.90;99.90;;;;;;4983513;28;20193;-80
2022/02/16 01:36:43;;;;;;;1.50;1.40;;;9.90;99.90;;;;;;4981320;28;20196;-84
2022/02/16 01:39:10;;;;;;;1.77;1.67;;;10.00;99.90;;;;;;4982718;28;20169;-78
2022/02/16 01:41:36;;;;;;;1.60;1.27;;;9.90;99.90;;;;;;4989344;28;20225;-79
2022/02/16 01:44:03;;;;;;;4.20;1.50;;;10.00;99.90;;;;;;4996517;28;20194;-79
2022/02/16 01:46:29;;;;;;;1.23;1.17;;;10.10;99.90;;;;;;4998432;28;20162;-79
2022/02/16 01:48:55;;;;;;;1.55;1.40;;;10.00;99.90;;;;;;5000193;28;20201;-78
2022/02/16 01:51:21;;;;;;;1.50;1.33;;;10.00;99.90;;;;;;4992377;28;20174;-78
2022/02/16 01:53:47;;;;;;;1.98;1.50;;;10.10;99.90;;;;;;4985584;28;20200;-79
2022/02/16 01:56:13;;;;;;;1.67;1.35;;;10.20;99.90;;;;;;4976554;28;20209;-84
2022/02/16 01:58:43;;;;;;;1.40;1.30;;;10.10;99.90;;;;;;4975565;28;20528;-87
2022/02/16 02:01:11;;;;;;;2.55;1.70;;;10.20;99.90;;;;;;4983422;28;20173;-78
2022/02/16 02:03:36;;;;;;;3.22;1.35;;;10.20;99.90;;;;;;4989708;28;20213;-82
2022/02/16 02:06:02;;;;;;;1.70;1.60;;;10.20;99.90;;;;;;4995439;28;20174;-86
2022/02/16 02:08:27;;;;;;;3.15;1.67;;;10.30;99.90;;;;;;4992073;28;20185;-84
2022/02/16 02:11:02;;;;;;;2.72;1.60;;;10.30;99.90;;;;;;4986688;28;20170;-82
2022/02/16 02:13:28;;;;;;;1.67;1.58;;;10.20;99.90;;;;;;4974355;28;20173;-79
2022/02/16 02:15:57;;;;;;;2.30;1.63;;;10.10;99.90;;;;;;4991903;28;20578;-88
2022/02/16 02:18:33;;;;;;;1.90;1.75;;;10.00;99.90;;;;;;4991395;28;20257;-80
2022/02/16 02:20:59;;;;;;;1.85;1.65;;;10.00;99.90;;;;;;4994824;28;20166;-87
2022/02/16 02:23:24;;;;;;;3.03;1.70;;;10.20;99.90;;;;;;4994728;28;20200;-78
2022/02/16 02:25:56;;;;;;;3.47;1.38;;;10.10;99.90;;;;;;4976175;28;20150;-79
2022/02/16 02:28:26;;;;;;;1.80;1.50;;;10.20;99.90;;;;;;4992955;28;20200;-79
2022/02/16 02:30:54;;;;;;;1.98;1.88;;;10.20;99.90;;;;;;4990536;28;20934;-86
2022/02/16 02:33:24;;;;;;;3.67;1.40;;;10.10;99.90;;;;;;4988327;28;20186;-78
2022/02/16 02:35:50;;;;;;;1.92;1.73;;;10.10;99.90;;;;;;4988528;28;20166;-80
2022/02/16 02:38:15;;;;;;;1.38;1.27;;;10.10;99.90;;;;;;4990077;28;20178;-86
2022/02/16 02:40:41;;;;;;;2.28;1.70;;;10.00;99.90;;;;;;4984002;28;20165;-80
2022/02/16 02:43:07;;;;;;;1.80;1.63;;;10.10;99.90;;;;;;4977282;28;20220;-81
2022/02/16 02:45:39;;;;;;;1.60;1.50;;;10.30;99.90;;;;;;4971399;28;20241;-80
2022/02/16 02:48:06;;;;;;;2.33;1.70;;;10.20;99.90;;;;;;4993330;28;20161;-82
2022/02/16 02:50:32;;;;;;;1.92;1.38;;;10.20;99.90;;;;;;4995699;28;20174;-82
2022/02/16 02:53:19;;;;;;;1.60;1.50;;;10.10;99.90;;;;;;4986043;28;20748;-79
2022/02/16 02:55:48;;;;;;;2.58;1.95;;;10.10;99.90;;;;;;4990393;28;20237;-78
2022/02/16 02:58:14;;;;;;;1.35;1.25;;;10.10;99.90;;;;;;4980651;28;20158;-77
2022/02/16 03:00:41;;;;;;;2.05;1.70;;;10.20;99.90;;;;;;4996876;28;20189;-78
2022/02/16 03:03:07;;;;;;;1.67;1.58;;;10.20;99.90;;;;;;4994089;28;20231;-79
2022/02/16 03:05:37;;;;;;;2.10;1.30;;;10.20;99.90;;;;;;4995682;28;20174;-79
2022/02/16 03:08:08;;;;;;;1.40;1.30;;;10.30;99.90;;;;;;4990164;28;20194;-82
2022/02/16 03:10:34;;;;;;;1.40;1.30;;;10.20;99.90;;;;;;4989499;28;20186;-80
2022/02/16 03:13:00;;;;;;;1.42;1.33;;;10.20;99.90;;;;;;4976780;28;20586;-88
2022/02/16 03:15:25;;;;;;;5.60;1.67;;;10.20;99.90;;;;;;4978515;28;20198;-79
2022/02/16 03:17:53;;;;;;;2.00;1.45;;;10.20;99.90;;;;;;4966373;28;20178;-84
2022/02/16 03:20:18;;;;;;;2.78;1.50;;;10.30;99.90;;;;;;4986088;28;20170;-82
2022/02/16 03:22:45;;;;;;;1.50;1.40;;;10.20;99.90;;;;;;4980430;28;20217;-80
2022/02/16 03:25:11;;;;;;;1.00;1.00;;;10.20;99.90;;;;;;4978460;28;20166;-84
2022/02/16 03:27:38;;;;;;;0.98;0.93;;;10.20;99.90;;;;;;4986725;28;20201;-80
2022/02/16 03:30:09;;;;;;;1.08;1.08;;;10.20;99.90;;;;;;4965908;28;20182;-79
2022/02/16 03:32:35;;;;;;;1.10;1.10;;;10.20;99.90;;;;;;4987039;28;20166;-79
2022/02/16 03:35:02;;;;;;;0.90;0.90;;;10.20;99.90;;;;;;4968756;28;20190;-78
2022/02/16 03:37:28;;;;;;;1.63;1.02;;;10.20;99.90;;;;;;4972854;28;20185;-82
2022/02/16 03:39:54;;;;;;;3.13;1.10;;;10.10;99.90;;;;;;4989225;28;20166;-78
2022/02/16 03:42:20;;;;;;;0.75;0.75;;;10.10;99.90;;;;;;4991291;28;20217;-80
2022/02/16 03:44:45;;;;;;;0.85;0.85;;;10.20;99.90;;;;;;4969480;28;20218;-78
2022/02/16 03:47:15;;;;;;;2.75;1.33;;;10.30;99.90;;;;;;4990783;28;20182;-83
2022/02/16 03:49:43;;;;;;;0.95;0.95;;;10.40;99.90;;;;;;4996752;28;20170;-81
2022/02/16 03:52:08;;;;;;;0.80;0.80;;;10.20;99.90;;;;;;4995038;28;20154;-85
2022/02/16 03:54:35;;;;;;;1.20;1.10;;;10.30;99.90;;;;;;4997319;28;20194;-86
2022/02/16 03:57:01;;;;;;;1.00;1.00;;;10.30;99.90;;;;;;4979208;28;20574;-80
2022/02/16 03:59:28;;;;;;;4.45;1.05;;;10.20;99.90;;;;;;4995844;28;20181;-84
2022/02/16 04:02:16;;;;;;;1.23;1.00;;;10.30;99.90;;;;;;4976572;28;20233;-81
2022/02/16 04:04:42;;;;;;;0.90;0.90;;;10.30;99.90;;;;;;4998002;28;20221;-78
2022/02/16 04:07:18;;;;;;;1.20;1.10;;;10.20;99.90;;;;;;4997489;28;20201;-79
2022/02/16 04:09:43;;;;;;;1.17;1.05;;;10.30;99.90;;;;;;4982033;28;20166;-84
2022/02/16 04:12:09;;;;;;;1.10;1.00;;;10.30;99.90;;;;;;4976819;28;20181;-78
2022/02/16 04:14:48;;;;;;;1.33;1.25;;;10.30;99.90;;;;;;4980687;28;20216;-82
2022/02/16 04:17:14;;;;;;;0.90;0.90;;;10.30;99.90;;;;;;4970897;28;20657;-80
2022/02/16 04:19:39;;;;;;;1.45;1.35;;;10.20;99.90;;;;;;4979887;28;20173;-79
2022/02/16 04:22:07;;;;;;;0.80;0.80;;;10.20;99.90;;;;;;4978746;28;20264;-79
2022/02/16 04:24:34;;;;;;;1.02;1.00;;;10.30;99.90;;;;;;4980560;28;20197;-79
2022/02/16 04:27:19;;;;;;;1.40;1.08;;;10.30;99.90;;;;;;4992505;28;20189;-79
2022/02/16 04:29:45;;;;;;;1.40;1.30;;;10.40;99.90;;;;;;4998815;28;20189;-78
2022/02/16 04:32:11;;;;;;;1.10;1.00;;;10.40;99.90;;;;;;4988158;28;20548;-78
2022/02/16 04:34:38;;;;;;;1.00;1.00;;;10.40;99.90;;;;;;4982684;28;20186;-82
2022/02/16 04:37:04;;;;;;;1.02;1.02;;;10.30;99.90;;;;;;4959928;28;20177;-78
2022/02/16 04:39:30;;;;;;;1.08;1.08;;;10.30;99.90;;;;;;4982617;28;20178;-81
2022/02/16 04:41:55;;;;;;;1.27;1.17;;;10.40;99.90;;;;;;4982966;28;20210;-77
2022/02/16 04:44:23;;;;;;;2.30;1.23;;;10.40;99.90;;;;;;4981027;28;20574;-78
2022/02/16 04:46:49;;;;;;;4.28;1.13;;;10.50;99.90;;;;;;4982217;28;20170;-78
2022/02/16 04:49:20;;;;;;;1.00;1.00;;;10.40;99.90;;;;;;4983597;28;20177;-77
2022/02/16 04:51:46;;;;;;;1.13;1.02;;;10.40;99.90;;;;;;4982048;28;20174;-77
2022/02/16 04:54:13;;;;;;;0.95;0.95;;;10.40;99.90;;;;;;4969969;28;20709;-78
2022/02/16 04:56:39;;;;;;;1.20;1.08;;;10.30;99.90;;;;;;4963504;28;20173;-79
2022/02/16 04:59:04;;;;;;;1.77;1.25;;;10.30;99.90;;;;;;4980909;28;20177;-78
2022/02/16 05:01:30;;;;;;;1.10;1.00;;;10.30;99.90;;;;;;4983151;28;20609;-80
2022/02/16 05:03:56;;;;;;;2.28;1.13;;;10.30;99.90;;;;;;4977821;28;20666;-82
2022/02/16 05:06:23;;;;;;;1.02;0.95;;;10.40;99.90;;;;;;4979586;28;20265;-79
2022/02/16 05:08:49;;;;;;;1.00;1.00;;;10.40;99.90;;;;;;4965919;28;20173;-78
2022/02/16 05:11:15;;;;;;;2.78;1.20;;;10.40;99.90;;;;;;4979629;28;20260;-77
2022/02/16 05:13:40;;;;;;;1.20;1.05;;;10.40;99.90;;;;;;4979117;28;20229;-79
2022/02/16 05:16:06;;;;;;;1.15;1.05;;;10.40;99.90;;;;;;4983927;28;20166;-79
2022/02/16 05:18:33;;;;;;;1.42;1.15;;;10.50;99.90;;;;;;4978589;28;20572;-88
2022/02/16 05:21:00;;;;;;;3.75;1.67;;;10.40;99.90;;;;;;4979484;28;20166;-78
2022/02/16 05:23:25;;;;;;;3.65;1.77;;;10.50;99.90;;;;;;4985716;28;20206;-79
2022/02/16 05:25:57;;;;;;;5.43;2.30;;;10.50;99.90;;;;;;4972198;28;20185;-79
2022/02/16 05:28:23;;;;;;;2.60;2.00;;;10.60;99.90;;;;;;4983023;28;20321;-79
2022/02/16 05:30:49;;;;;;;4.53;2.10;;;10.50;99.90;;;;;;4965233;28;20170;-78
2022/02/16 05:33:14;;;;;;;2.47;2.28;;;10.60;99.90;;;;;;4980264;28;20216;-78
2022/02/16 05:35:40;;;;;;;2.13;1.90;;;10.60;99.90;;;;;;4964105;28;20174;-83
2022/02/16 05:38:06;;;;;;;2.10;1.80;;;10.50;99.90;;;;;;4967576;28;20174;-78
2022/02/16 05:40:32;;;;;;;2.30;2.00;;;10.50;99.90;;;;;;4981122;28;20654;-78
2022/02/16 05:42:58;;;;;;;2.80;2.20;;;10.50;99.90;;;;;;4964306;28;20220;-77
2022/02/16 05:45:25;;;;;;;1.98;1.80;;;10.50;99.90;;;;;;4968291;28;20182;-78
2022/02/16 05:47:51;;;;;;;1.85;1.70;;;10.50;99.90;;;;;;4959065;28;20170;-78
2022/02/16 05:50:17;;;;;;;2.05;1.83;;;10.50;99.90;;;;;;4975576;28;20180;-78
2022/02/16 05:52:45;;;;;;;2.60;1.80;;;10.50;99.90;;;;;;4976207;28;20185;-77
2022/02/16 05:55:12;;;;;;;1.70;1.60;;;10.50;99.90;;;;;;4958900;28;20544;-79
2022/02/16 05:57:38;;;;;;;1.80;1.70;;;10.50;99.90;;;;;;4982008;28;20174;-78
2022/02/16 06:00:07;;;;;;;1.50;1.33;;;10.40;99.90;;;;;;4979896;28;20220;-79
2022/02/16 06:02:33;;;;;;;1.50;1.40;;;10.50;99.90;;;;;;4981195;28;20304;-80
2022/02/16 06:04:58;;;;;;;2.20;1.30;;;10.70;99.90;;;;;;4976319;28;20217;-79
2022/02/16 06:07:24;;;;;;;1.40;1.30;;;10.70;99.90;;;;;;4977426;28;20217;-78
2022/02/16 06:09:49;;;;;;;1.48;1.38;;;10.60;99.90;;;;;;4979425;28;20197;-79
2022/02/16 06:12:15;;;;;;;1.65;1.20;;;10.70;99.90;;;;;;4964294;28;20190;-79
2022/02/16 06:14:40;;;;;;;1.67;1.10;;;10.70;99.90;;;;;;4979822;28;20205;-79
2022/02/16 06:17:06;;;;;;;1.30;1.17;;;10.70;99.90;;;;;;4960573;28;20662;-78
2022/02/16 06:19:32;;;;;;;1.00;0.93;;;10.70;99.90;;;;;;4979637;28;20193;-79
2022/02/16 06:21:57;;;;;;;1.25;1.15;;;10.80;99.90;;;;;;4980444;28;20206;-79
2022/02/16 06:24:23;;;;;;;0.90;0.90;;;10.80;99.90;;;;;;4981574;28;20193;-77
2022/02/16 06:26:48;;;;;;;0.80;0.80;;;10.70;99.90;;;;;;4982614;28;20700;-79
2022/02/16 06:29:14;;;;;;;0.90;0.90;;;10.80;99.90;;;;;;4982387;28;20189;-79
2022/02/16 06:31:40;;;;;;;0.85;0.85;;;10.80;99.90;;;;;;4979368;28;20181;-78
2022/02/16 06:34:05;;;;;;;0.85;0.85;;;10.80;99.90;;;;;;4966777;28;20276;-79
2022/02/16 06:36:33;;;;;;;0.77;0.77;;;10.80;99.90;;;;;;4966761;28;20181;-78
2022/02/16 06:39:00;;;;;;;1.60;0.98;;;10.80;99.90;;;;;;4982649;28;20241;-78
2022/02/16 06:41:28;;;;;;;0.90;0.90;;;10.80;99.90;;;;;;4969148;28;20202;-78
2022/02/16 06:43:54;;;;;;;0.90;0.90;;;10.80;99.90;;;;;;4965956;28;20204;-78
2022/02/16 06:46:19;;;;;;;1.10;1.00;;;10.90;99.90;;;;;;4989937;28;20186;-81
2022/02/16 06:48:45;;;;;;;0.75;0.75;;;10.90;99.90;;;;;;4963229;28;20186;-79
2022/02/16 06:51:10;;;;;;;1.08;1.08;;;11.00;99.90;;;;;;4980660;28;20154;-78
2022/02/16 06:53:39;;;;;;;0.70;0.70;;;11.00;99.90;;;;;;4965370;28;20276;-77
2022/02/16 06:56:06;;;;;;;3.45;0.90;;;11.00;99.90;;;;;;4982576;28;20595;-78
2022/02/16 06:58:32;;;;;;;1.13;0.93;;;11.00;99.90;;;;;;4984487;28;20162;-78
2022/02/16 07:00:57;;;;;;;0.73;0.73;;;11.10;99.90;;;;;;4969104;28;20180;-77
2022/02/16 07:03:23;;;;;;;2.55;1.00;;;11.20;99.90;;;;;;4987795;28;20205;-78
2022/02/16 07:05:50;;;;;;;1.10;1.00;;;11.10;99.90;;;;;;4987701;28;20193;-79
2022/02/16 07:08:19;;;;;;;1.38;0.68;;;11.20;99.90;;;;;;4982804;28;20174;-80
2022/02/16 07:10:46;;;;;;;0.95;0.95;;;11.20;99.90;;;;;;4989196;28;20237;-77
2022/02/16 07:13:12;;;;;;;1.08;0.88;;;11.20;99.90;;;;;;4960025;28;20280;-78
2022/02/16 07:15:38;;;;;;;0.88;0.70;;;11.20;99.90;;;;;;4976244;28;20193;-78
2022/02/16 07:18:03;;;;;;;0.95;0.95;;;11.30;99.90;;;;;;4976793;28;20875;-78
2022/02/16 07:20:29;;;;;;;0.90;0.90;;;11.30;99.90;;;;;;4958684;28;20180;-78
2022/02/16 07:22:55;;;;;;;3.25;1.02;;;11.20;99.90;;;;;;4975811;28;20206;-78
2022/02/16 07:25:21;;;;;;;1.23;1.13;;;11.20;99.90;;;;;;4980547;28;20198;-78
2022/02/16 07:27:46;;;;;;;1.00;0.90;;;11.30;99.90;;;;;;4987060;28;20173;-78
2022/02/16 07:30:13;;;;;;;1.08;1.05;;;11.30;99.90;;;;;;4986665;28;20192;-78
2022/02/16 07:32:41;;;;;;;1.90;1.05;;;11.40;99.90;;;;;;4988025;28;20694;-78
2022/02/16 07:35:08;;;;;;;1.00;1.00;;;11.40;99.90;;;;;;4960898;28;20197;-82
2022/02/16 07:37:34;;;;;;;1.17;1.08;;;11.40;99.90;;;;;;4975404;28;20528;-79
2022/02/16 07:40:00;;;;;;;1.33;1.17;;;11.50;99.90;;;;;;4975095;28;20174;-81
2022/02/16 07:42:27;;;;;;;1.20;1.10;;;11.50;99.90;;;;;;4974695;28;20666;-79
2022/02/16 07:44:54;;;;;;;1.02;0.93;;;11.50;99.90;;;;;;4982742;28;20193;-80
2022/02/16 07:47:21;;;;;;;1.33;0.88;;;11.50;99.90;;;;;;4966758;28;20609;-79
2022/02/16 07:49:46;;;;;;;1.27;1.02;;;11.40;99.90;;;;;;4979933;28;20170;-79
2022/02/16 07:52:12;;;;;;;0.93;0.80;;;11.40;99.90;;;;;;4959749;28;20200;-78
2022/02/16 07:54:38;;;;;;;0.75;0.75;;;11.50;99.90;;;;;;4975041;28;20178;-79
2022/02/16 07:57:03;;;;;;;1.27;1.00;;;11.50;99.90;;;;;;4956097;28;20177;-79
2022/02/16 07:59:29;;;;;;;1.48;0.80;;;11.50;99.90;;;;;;4973545;28;20631;-81
2022/02/16 08:01:56;;;;;;;0.70;0.70;;;11.50;99.90;;;;;;4974862;28;20213;-84
2022/02/16 08:04:23;;;;;;;0.60;0.60;;;11.60;99.90;;;;;;4973695;28;20190;-82
2022/02/16 08:06:49;;;;;;;6.07;0.80;;;11.60;99.90;;;;;;4973345;28;20177;-79
2022/02/16 08:09:15;;;;;;;0.80;0.80;;;11.50;99.90;;;;;;4975362;28;20623;-79
2022/02/16 08:11:42;;;;;;;0.75;0.73;;;11.50;99.90;;;;;;4958046;28;20185;-82
2022/02/16 08:14:09;;;;;;;0.77;0.60;;;11.50;99.90;;;;;;4974685;28;20193;-84
2022/02/16 08:16:35;;;;;;;0.52;0.50;;;11.60;99.90;;;;;;4974389;28;20182;-84
2022/02/16 08:19:06;;;;;;;1.45;0.57;;;11.60;99.90;;;;;;4972308;28;20169;-80
2022/02/16 08:21:32;;;;;;;1.02;0.93;;;11.60;99.90;;;;;;4972323;28;20284;-79
2022/02/16 08:23:58;;;;;;;1.45;0.90;;;11.60;99.90;;;;;;4976497;28;20189;-83
2022/02/16 08:26:24;;;;;;;1.77;0.88;;;11.60;99.90;;;;;;4975355;28;20170;-86
2022/02/16 08:28:49;;;;;;;0.82;0.82;;;11.70;99.90;;;;;;4973677;28;20618;-78
2022/02/16 08:31:15;;;;;;;1.35;0.90;;;11.70;99.90;;;;;;4974645;28;20166;-78
2022/02/16 08:33:40;;;;;;;1.17;0.93;;;11.70;99.90;;;;;;4973953;28;20213;-86
2022/02/16 08:36:07;;;;;;;0.82;0.82;;;11.60;99.90;;;;;;4975737;28;20172;-78
2022/02/16 08:38:33;;;;;;;0.95;0.95;;;11.80;99.90;;;;;;4974009;28;20288;-79
2022/02/16 08:40:59;;;;;;;0.70;0.70;;;11.90;99.90;;;;;;4973995;28;20181;-85
2022/02/16 08:43:28;;;;;;;0.98;0.90;;;11.80;99.90;;;;;;4975776;28;20213;-79
2022/02/16 08:45:54;;;;;;;1.00;0.70;;;11.90;99.90;;;;;;4975620;28;20169;-83
2022/02/16 08:48:23;;;;;;;3.33;0.80;;;12.00;99.90;;;;;;4974482;28;20200;-79
2022/02/16 08:50:49;;;;;;;1.55;0.80;;;12.00;99.90;;;;;;4973093;28;20177;-79
2022/02/16 08:53:15;;;;;;;0.85;0.85;;;12.10;99.90;;;;;;4971856;28;20190;-78
2022/02/16 08:55:41;;;;;;;0.95;0.95;;;12.10;99.90;;;;;;4973920;28;20176;-78
2022/02/16 08:58:09;;;;;;;0.80;0.80;;;12.10;99.90;;;;;;4969396;28;20212;-84
2022/02/16 09:00:37;;;;;;;0.52;0.50;;;12.10;99.90;;;;;;4970869;28;20217;-78
2022/02/16 09:03:03;;;;;;;0.82;0.82;;;12.10;99.90;;;;;;4970976;28;20245;-79
2022/02/16 09:05:29;;;;;;;0.70;0.70;;;12.10;99.90;;;;;;4974040;28;20261;-81
2022/02/16 09:07:54;;;;;;;1.70;0.75;;;12.10;99.90;;;;;;4976306;28;20650;-80
2022/02/16 09:10:20;;;;;;;0.98;0.90;;;12.10;99.90;;;;;;4975401;28;20165;-82
2022/02/16 09:12:46;;;;;;;4.65;1.02;;;12.10;99.90;;;;;;4978179;28;20553;-82
2022/02/16 09:15:11;;;;;;;1.38;1.13;;;12.20;99.90;;;;;;4980148;28;20169;-80
2022/02/16 09:17:38;;;;;;;1.00;0.93;;;12.20;99.90;;;;;;4965443;28;20245;-78
2022/02/16 09:20:04;;;;;;;1.33;1.23;;;12.30;99.90;;;;;;4984343;28;20162;-82
2022/02/16 09:22:30;;;;;;;1.40;1.30;;;12.20;99.90;;;;;;4967942;28;20280;-83
2022/02/16 09:24:56;;;;;;;4.93;1.58;;;12.10;99.90;;;;;;4966283;28;20277;-83
2022/02/16 09:27:23;;;;;;;2.60;1.40;;;12.30;99.90;;;;;;4978312;28;20181;-81
2022/02/16 09:29:50;;;;;;;3.35;1.70;;;12.30;99.90;;;;;;4978498;28;20182;-79
2022/02/16 09:32:16;;;;;;;1.58;1.33;;;12.30;99.90;;;;;;4982220;28;20173;-80
2022/02/16 09:34:45;;;;;;;1.17;1.08;;;12.40;99.90;;;;;;4964244;28;20285;-81
2022/02/16 09:37:11;;;;;;;1.20;1.10;;;12.30;99.90;;;;;;4994145;28;20201;-85
2022/02/16 09:39:37;;;;;;;2.92;1.40;;;12.40;99.90;;;;;;4971244;28;20254;-81
2022/02/16 09:42:03;;;;;;;2.30;0.77;;;12.40;99.90;;;;;;4975334;28;20216;-79
2022/02/16 09:44:53;;;;;;;5.75;1.08;;;12.50;99.90;;;;;;4957579;28;20182;-85
2022/02/16 09:47:19;;;;;;;5.00;1.58;;;12.50;99.90;;;;;;4977601;28;20166;-78
2022/02/16 09:49:45;;;;;;;2.33;1.33;;;12.50;99.90;;;;;;4974740;28;20174;-79
2022/02/16 09:52:12;;;;;;;2.28;1.50;;;12.60;99.90;;;;;;4975629;28;20193;-79
2022/02/16 09:54:39;;;;;;;1.88;1.20;;;12.60;99.90;;;;;;4981418;28;20194;-79
2022/02/16 09:57:05;;;;;;;1.20;1.10;;;12.60;99.90;;;;;;4979537;28;20627;-79
2022/02/16 09:59:31;;;;;;;5.80;1.45;;;12.60;99.90;;;;;;4965156;28;20185;-83
2022/02/16 10:02:01;;;;;;;1.95;1.23;;;12.60;99.90;;;;;;4981338;28;20241;-80
2022/02/16 10:04:30;;;;;;;4.85;1.50;;;12.60;99.90;;;;;;4983953;28;20285;-80
2022/02/16 10:06:56;;;;;;;1.95;1.10;;;12.60;99.90;;;;;;4978686;28;20194;-79
2022/02/16 10:09:32;;;;;;;3.58;1.30;;;12.70;99.90;;;;;;4961460;28;20174;-79
2022/02/16 10:12:00;;;;;;;6.30;1.50;;;12.70;99.90;;;;;;4978128;28;20189;-86
2022/02/16 10:14:31;;;;;;;1.52;1.00;;;12.80;99.90;;;;;;4976321;28;20185;-80
2022/02/16 10:17:04;;;;;;;10.90;1.00;;;12.80;99.90;;;;;;4977914;28;20177;-83
2022/02/16 10:19:50;;;;;;;7.53;1.65;;;12.70;99.90;;;;;;4976856;28;20261;-87
2022/02/16 10:22:16;;;;;;;7.47;1.75;;;13.00;99.90;;;;;;4971429;28;20240;-79
2022/02/16 10:24:44;;;;;;;5.18;1.30;;;13.00;99.90;;;;;;4959356;28;20281;-79
2022/02/16 10:27:12;;;;;;;4.97;1.52;;;13.10;99.90;;;;;;4976875;28;20220;-79
2022/02/16 10:29:39;;;;;;;3.90;1.63;;;13.10;99.90;;;;;;4975254;28;20205;-79
2022/02/16 10:32:05;;;;;;;4.35;1.25;;;13.20;99.90;;;;;;4976313;28;20170;-86
2022/02/16 10:34:49;;;;;;;7.65;1.10;;;13.20;99.90;;;;;;4976324;28;20182;-86
2022/02/16 10:37:17;;;;;;;6.13;1.58;;;13.30;99.90;;;;;;4976836;28;20176;-81
2022/02/16 10:39:59;;;;;;;3.17;1.20;;;13.40;99.90;;;;;;4973900;28;20178;-77
2022/02/16 10:42:25;;;;;;;6.90;2.00;;;13.50;99.90;;;;;;4957677;29;20237;-79
2022/02/16 10:45:04;;;;;;;3.17;1.20;;;13.60;99.90;;;;;;4957589;29;20671;-89
2022/02/16 10:47:54;;;;;;;6.35;1.67;;;13.60;99.90;;;;;;4958504;29;20506;-91
2022/02/16 10:50:30;;;;;;;7.15;1.30;;;13.70;99.90;;;;;;4976431;28;20182;-79
2022/02/16 10:53:01;;;;;;;3.50;0.90;;;13.70;99.90;;;;;;4976704;28;20169;-83
2022/02/16 10:55:46;;;;;;;2.83;1.50;;;13.70;99.90;;;;;;4976590;28;20193;-78
2022/02/16 10:58:15;;;;;;;5.68;1.15;;;13.70;99.90;;;;;;4976436;28;20212;-78
2022/02/16 11:00:43;;;;;;;6.53;1.70;;;13.70;99.90;;;;;;4976472;28;20173;-83
2022/02/16 11:03:11;;;;;;;2.35;1.40;;;13.60;99.90;;;;;;4976163;28;20205;-87
2022/02/16 11:05:42;;;;;;;8.68;1.92;;;13.60;99.90;;;;;;4976042;28;20206;-78
2022/02/16 11:08:14;;;;;;;3.13;2.00;;;13.40;99.90;;;;;;4976206;28;20178;-84
2022/02/16 11:10:46;;;;;;;8.32;1.58;;;13.50;99.90;;;;;;4976168;28;20177;-78
2022/02/16 11:13:21;;;;;;;8.02;1.65;;;13.50;99.90;;;;;;4976249;28;20276;-79
2022/02/16 11:15:50;;;;;;;10.68;1.77;;;13.40;99.90;;;;;;4975870;28;20197;-78
2022/02/16 11:18:18;;;;;;;11.98;1.95;;;13.50;99.90;;;;;;4976093;28;20256;-82
2022/02/16 11:20:44;;;;;;;12.23;2.28;;;13.50;99.90;;;;;;4975941;28;20665;-78
2022/02/16 11:23:13;;;;;;;8.70;2.15;;;13.50;99.90;;;;;;4975721;28;20559;-79
2022/02/16 11:25:43;;;;;;;9.63;2.95;;;13.40;99.90;;;;;;4976538;28;20193;-79
2022/02/16 11:28:12;;;;;;;6.35;2.00;;;13.40;99.90;;;;;;4975691;28;20205;-79
2022/02/16 11:30:47;;;;;;;15.43;2.08;;;13.40;99.90;;;;;;4975675;28;20216;-79
2022/02/16 11:33:21;;;;;;;5.28;1.98;;;13.50;99.90;;;;;;4975785;28;20180;-78
2022/02/16 11:36:07;;;;;;;13.07;1.90;;;13.50;99.90;;;;;;4976172;28;20173;-79
2022/02/16 11:38:39;;;;;;;20.48;2.92;;;13.60;99.90;;;;;;4975989;28;20186;-79
2022/02/16 11:41:27;;;;;;;14.77;2.90;;;13.80;99.90;;;;;;4976045;28;20185;-79
2022/02/16 11:44:00;;;;;;;14.38;2.80;;;13.70;99.90;;;;;;4958389;28;20814;-79
2022/02/16 11:46:59;;;;;;;22.13;2.90;;;13.90;99.90;;;;;;4975352;28;20177;-83
2022/02/16 11:49:27;;;;;;;8.02;2.58;;;14.00;99.90;;;;;;4969031;28;20194;-79
2022/02/16 11:51:54;;;;;;;11.93;2.80;;;14.20;99.90;;;;;;4976363;28;20170;-80
2022/02/16 11:54:44;;;;;;;21.45;3.40;;;14.40;99.90;;;;;;4958368;28;20190;-81
2022/02/16 11:57:31;;;;;;;18.55;2.85;;;14.40;99.90;;;;;;4981951;28;20173;-78
2022/02/16 11:59:59;;;;;;;21.90;3.42;;;14.40;99.90;;;;;;4986286;28;20165;-78
2022/02/16 12:02:24;;;;;;;11.43;3.38;;;14.20;99.90;;;;;;4988405;28;20240;-78
2022/02/16 12:04:55;;;;;;;19.88;3.75;;;14.30;99.90;;;;;;4987676;28;20189;-78
2022/02/16 12:07:22;;;;;;;20.25;3.83;;;14.20;99.90;;;;;;4987318;28;20173;-79
2022/02/16 12:10:16;;;;;;;18.90;3.63;;;14.40;99.90;;;;;;4994491;28;20158;-81
2022/02/16 12:12:43;;;;;;;22.80;3.70;;;14.40;99.90;;;;;;4968735;28;20174;-79
2022/02/16 12:15:09;;;;;;;13.70;2.90;;;14.40;99.90;;;;;;4957306;28;20197;-79
2022/02/16 12:17:35;;;;;;;17.80;3.25;;;14.40;99.90;;;;;;4973835;28;20174;-79
2022/02/16 12:20:06;;;;;;;17.92;2.80;;;14.30;99.90;;;;;;4967449;28;20590;-90
2022/02/16 12:22:36;;;;;;;10.50;2.22;;;14.20;99.90;;;;;;4959604;28;20213;-80
2022/02/16 12:25:14;;;;;;;12.52;2.28;;;14.00;99.90;;;;;;4958256;28;20190;-79
2022/02/16 12:27:41;;;;;;;13.75;2.00;;;14.00;99.90;;;;;;4973575;28;20181;-79
2022/02/16 12:30:07;;;;;;;14.38;2.75;;;14.20;99.90;;;;;;4974263;28;20193;-82
2022/02/16 12:32:33;;;;;;;16.17;2.83;;;14.20;99.90;;;;;;4975027;28;20639;-83
2022/02/16 12:35:01;;;;;;;13.25;2.72;;;14.30;99.90;;;;;;4974905;28;20193;-79
2022/02/16 12:37:27;;;;;;;13.07;2.72;;;14.30;99.90;;;;;;4959647;28;20181;-81
2022/02/16 12:40:00;;;;;;;6.43;2.17;;;14.30;99.90;;;;;;4974570;28;20263;-81
2022/02/16 12:42:41;;;;;;;19.35;3.05;;;14.40;99.90;;;;;;4975075;28;20209;-82
2022/02/16 12:45:07;;;;;;;11.35;2.88;;;14.40;99.90;;;;;;4973723;28;20194;-80
2022/02/16 12:47:33;;;;;;;19.83;2.55;;;14.50;99.90;;;;;;4974451;28;20184;-81
2022/02/16 12:50:10;;;;;;;10.48;2.15;;;14.50;99.90;;;;;;4973001;28;20593;-79
2022/02/16 12:52:35;;;;;;;13.55;2.00;;;14.60;99.90;;;;;;4974715;28;20635;-80